createdAt,value
2023-03-06T00:02:01.183Z,47.02
2023-03-06T00:04:27.834Z,48.68
2023-03-06T00:06:54.557Z,47.31
2023-03-06T00:09:22.352Z,48.35
2023-03-06T00:11:49.027Z,48.53
2023-03-06T00:14:15.691Z,48.49
2023-03-06T00:16:42.603Z,49.36
2023-03-06T00:19:09.254Z,49.94
2023-03-06T00:21:35.918Z,49.72
2023-03-06T00:24:02.562Z,48.16
2023-03-06T00:26:29.200Z,47.77
2023-03-06T00:28:55.906Z,47.90
2023-03-06T00:31:22.619Z,47.67
2023-03-06T00:33:49.302Z,47.89
2023-03-06T00:36:15.977Z,47.69
2023-03-06T00:38:42.608Z,47.11
2023-03-06T00:41:10.090Z,47.48
2023-03-06T00:43:36.983Z,47.60
2023-03-06T00:46:03.725Z,47.05
2023-03-06T00:48:30.356Z,46.82
2023-03-06T00:50:57.172Z,46.93
2023-03-06T00:53:23.913Z,46.94
2023-03-06T00:55:50.878Z,47.35
2023-03-06T00:58:17.639Z,47.51
2023-03-06T01:00:44.393Z,47.72
2023-03-06T01:03:11.190Z,46.56
2023-03-06T01:05:38.220Z,44.54
2023-03-06T01:08:05.308Z,44.57
2023-03-06T01:10:32.203Z,44.47
2023-03-06T01:12:58.890Z,46.30
2023-03-06T01:15:25.719Z,46.96
2023-03-06T01:17:53.383Z,46.39
2023-03-06T01:20:20.070Z,46.79
2023-03-06T01:22:46.706Z,46.73
2023-03-06T01:25:13.328Z,48.48
2023-03-06T01:27:40.120Z,49.50
2023-03-06T01:30:07.297Z,48.55
2023-03-06T01:32:33.992Z,48.74
2023-03-06T01:35:00.688Z,49.21
2023-03-06T01:37:27.322Z,48.79
2023-03-06T01:39:53.991Z,49.11
2023-03-06T01:42:20.748Z,49.03
2023-03-06T01:45:16.791Z,48.87
2023-03-06T01:47:43.498Z,48.33
2023-03-06T01:50:10.445Z,48.82
2023-03-06T01:52:42.957Z,48.83
2023-03-06T01:55:15.645Z,49.71
2023-03-06T01:57:46.916Z,48.64
2023-03-06T02:00:15.426Z,47.80
2023-03-06T02:02:43.563Z,48.22
2023-03-06T02:05:10.245Z,48.03
2023-03-06T02:07:37.200Z,48.68
2023-03-06T02:10:04.594Z,48.61
2023-03-06T02:12:31.256Z,49.12
2023-03-06T02:14:57.893Z,48.14
2023-03-06T02:17:24.639Z,49.16
2023-03-06T02:20:10.944Z,49.69
2023-03-06T02:22:46.519Z,50.29
2023-03-06T02:25:28.178Z,48.51
2023-03-06T02:27:54.860Z,47.94
2023-03-06T02:30:21.725Z,48.99
2023-03-06T02:32:48.359Z,48.90
2023-03-06T02:35:28.190Z,49.82
2023-03-06T02:37:54.839Z,49.94
2023-03-06T02:40:21.686Z,49.16
2023-03-06T02:42:49.708Z,49.44
2023-03-06T02:45:20.236Z,49.17
2023-03-06T02:47:46.854Z,49.66
2023-03-06T02:50:13.522Z,48.48
2023-03-06T02:52:40.144Z,49.19
2023-03-06T02:55:07.249Z,48.93
2023-03-06T02:57:33.882Z,49.47
2023-03-06T03:00:00.504Z,49.34
2023-03-06T03:02:27.233Z,49.77
2023-03-06T03:04:54.036Z,49.35
2023-03-06T03:07:21.847Z,48.22
2023-03-06T03:09:48.518Z,49.58
2023-03-06T03:12:15.147Z,48.35
2023-03-06T03:14:41.832Z,49.16
2023-03-06T03:17:08.443Z,48.07
2023-03-06T03:19:35.052Z,49.19
2023-03-06T03:22:01.639Z,48.92
2023-03-06T03:24:28.282Z,48.62
2023-03-06T03:26:54.932Z,48.80
2023-03-06T03:29:21.779Z,49.43
2023-03-06T03:31:48.553Z,49.25
2023-03-06T03:34:15.676Z,48.75
2023-03-06T03:36:42.386Z,48.96
2023-03-06T03:39:09.037Z,49.38
2023-03-06T03:41:35.629Z,49.81
2023-03-06T03:44:02.257Z,48.43
2023-03-06T03:46:28.969Z,48.91
2023-03-06T03:48:55.977Z,49.28
2023-03-06T03:51:22.657Z,48.01
2023-03-06T03:53:49.320Z,48.60
2023-03-06T03:56:16.097Z,48.98
2023-03-06T03:58:42.777Z,49.65
2023-03-06T04:01:09.403Z,48.62
2023-03-06T04:03:36.129Z,49.19
2023-03-06T04:06:02.862Z,49.98
2023-03-06T04:08:29.562Z,49.39
2023-03-06T04:10:56.197Z,49.36
2023-03-06T04:13:24.540Z,50.78
2023-03-06T04:15:52.087Z,51.19
2023-03-06T04:18:18.918Z,50.39
2023-03-06T04:20:45.685Z,49.75
2023-03-06T04:23:12.336Z,50.35
2023-03-06T04:25:39.014Z,50.90
2023-03-06T04:28:05.811Z,48.97
2023-03-06T04:30:32.679Z,50.59
2023-03-06T04:32:59.359Z,50.36
2023-03-06T04:35:25.986Z,48.82
2023-03-06T04:37:52.694Z,49.05
2023-03-06T04:40:21.099Z,49.82
2023-03-06T04:42:48.147Z,50.18
2023-03-06T04:45:15.253Z,50.12
2023-03-06T04:47:42.344Z,49.30
2023-03-06T04:50:09.803Z,49.75
2023-03-06T04:52:36.444Z,51.49
2023-03-06T04:55:03.408Z,49.48
2023-03-06T04:57:30.033Z,49.00
2023-03-06T04:59:56.753Z,49.46
2023-03-06T05:02:23.470Z,49.85
2023-03-06T05:04:50.138Z,49.06
2023-03-06T05:07:16.811Z,50.19
2023-03-06T05:09:43.435Z,50.08
2023-03-06T05:12:10.068Z,50.39
2023-03-06T05:14:36.684Z,50.53
2023-03-06T05:17:03.319Z,49.84
2023-03-06T05:19:30.054Z,49.51
2023-03-06T05:21:56.675Z,49.47
2023-03-06T05:24:23.309Z,50.65
2023-03-06T05:26:49.981Z,51.11
2023-03-06T05:29:16.654Z,51.09
2023-03-06T05:31:43.972Z,52.19
2023-03-06T05:34:13.468Z,50.70
2023-03-06T05:36:40.070Z,51.00
2023-03-06T05:39:07.092Z,50.58
2023-03-06T05:41:33.788Z,51.72
2023-03-06T05:44:00.377Z,52.18
2023-03-06T05:46:28.142Z,51.30
2023-03-06T05:48:54.944Z,51.91
2023-03-06T05:51:21.600Z,51.62
2023-03-06T05:53:49.613Z,51.95
2023-03-06T05:56:16.271Z,51.85
2023-03-06T05:58:42.947Z,51.97
2023-03-06T06:01:13.796Z,52.31
2023-03-06T06:03:40.603Z,51.60
2023-03-06T06:06:08.479Z,51.31
2023-03-06T06:08:35.509Z,52.54
2023-03-06T06:11:02.189Z,51.68
2023-03-06T06:13:28.798Z,52.78
2023-03-06T06:15:55.446Z,51.86
2023-03-06T06:18:22.139Z,52.66
2023-03-06T06:20:48.799Z,51.71
2023-03-06T06:23:15.483Z,52.56
2023-03-06T06:25:42.173Z,51.85
2023-03-06T06:28:08.832Z,53.33
2023-03-06T06:30:35.555Z,53.90
2023-03-06T06:33:03.203Z,54.46
2023-03-06T06:35:29.891Z,53.35
2023-03-06T06:37:56.583Z,51.78
2023-03-06T06:40:23.247Z,53.09
2023-03-06T06:42:49.972Z,52.91
2023-03-06T06:45:16.643Z,52.95
2023-03-06T06:47:43.279Z,51.35
2023-03-06T06:50:14.050Z,51.41
2023-03-06T06:52:40.740Z,53.26
2023-03-06T06:55:07.982Z,52.86
2023-03-06T06:57:34.652Z,51.93
2023-03-06T07:00:03.132Z,54.09
2023-03-06T07:02:29.804Z,52.88
2023-03-06T07:05:04.215Z,51.50
2023-03-06T07:07:34.073Z,52.04
2023-03-06T07:10:00.796Z,52.92
2023-03-06T07:12:27.443Z,53.04
2023-03-06T07:14:54.081Z,53.66
2023-03-06T07:17:20.748Z,53.84
2023-03-06T07:19:47.412Z,54.24
2023-03-06T07:22:14.085Z,53.95
2023-03-06T07:24:40.688Z,52.87
2023-03-06T07:27:08.442Z,50.40
2023-03-06T07:29:35.060Z,52.10
2023-03-06T07:32:01.757Z,51.08
2023-03-06T07:34:28.418Z,50.71
2023-03-06T07:36:55.098Z,48.31
2023-03-06T07:39:22.093Z,48.57
2023-03-06T07:41:48.714Z,47.97
2023-03-06T07:44:15.428Z,48.25
2023-03-06T07:46:42.200Z,46.98
2023-03-06T07:49:08.837Z,47.85
2023-03-06T07:51:35.802Z,47.16
2023-03-06T07:54:02.477Z,47.49
2023-03-06T07:56:29.206Z,47.00
2023-03-06T07:58:57.025Z,47.57
2023-03-06T08:01:23.751Z,47.88
2023-03-06T08:03:50.566Z,49.14
2023-03-06T08:06:21.728Z,49.43
2023-03-06T08:08:48.667Z,49.57
2023-03-06T08:11:16.194Z,50.08
2023-03-06T08:13:43.054Z,50.22
2023-03-06T08:16:10.024Z,49.43
2023-03-06T08:18:36.963Z,50.09
2023-03-06T08:21:04.939Z,49.51
2023-03-06T08:23:31.656Z,50.30
2023-03-06T08:25:59.092Z,50.79
2023-03-06T08:28:25.923Z,47.38
2023-03-06T08:30:52.587Z,47.25
2023-03-06T08:33:19.275Z,47.27
2023-03-06T08:35:45.972Z,47.32
2023-03-06T08:38:12.707Z,47.83
2023-03-06T08:40:39.337Z,48.11
2023-03-06T08:43:09.135Z,47.33
2023-03-06T08:45:35.812Z,46.17
2023-03-06T08:48:02.433Z,48.86
2023-03-06T08:50:29.377Z,48.15
2023-03-06T08:52:56.005Z,48.28
2023-03-06T08:55:22.763Z,48.15
2023-03-06T08:57:49.422Z,46.68
2023-03-06T09:00:16.850Z,47.01
2023-03-06T09:02:43.666Z,47.01
2023-03-06T09:05:10.591Z,47.77
2023-03-06T09:07:37.291Z,47.77
2023-03-06T09:10:04.114Z,48.34
2023-03-06T09:12:32.676Z,47.31
2023-03-06T09:15:04.938Z,46.98
2023-03-06T09:17:31.661Z,46.17
2023-03-06T09:19:58.378Z,45.96
2023-03-06T09:22:25.108Z,46.53
2023-03-06T09:24:51.774Z,45.90
2023-03-06T09:27:18.443Z,46.40
2023-03-06T09:29:45.112Z,46.57
2023-03-06T09:32:12.235Z,47.52
2023-03-06T09:34:38.997Z,46.96
2023-03-06T09:37:05.644Z,46.75
2023-03-06T09:39:32.338Z,47.01
2023-03-06T09:42:01.293Z,47.21
2023-03-06T09:44:32.085Z,45.67
2023-03-06T09:47:11.083Z,45.43
2023-03-06T09:49:49.649Z,45.98
2023-03-06T09:52:26.692Z,45.84
2023-03-06T09:55:14.143Z,45.21
2023-03-06T09:57:51.154Z,45.47
2023-03-06T10:00:39.767Z,46.27
2023-03-06T10:03:25.071Z,45.80
2023-03-06T10:06:02.972Z,45.82
2023-03-06T10:08:35.554Z,46.31
2023-03-06T10:11:03.774Z,46.17
2023-03-06T10:13:43.152Z,45.21
2023-03-06T10:16:27.896Z,45.48
2023-03-06T10:18:55.462Z,44.74
2023-03-06T10:21:59.212Z,46.43
2023-03-06T10:24:52.945Z,46.92
2023-03-06T10:28:12.130Z,45.40
2023-03-06T10:30:42.429Z,46.36
2023-03-06T10:33:21.237Z,46.06
2023-03-06T10:35:48.548Z,45.77
2023-03-06T10:38:22.233Z,45.90
2023-03-06T10:41:15.013Z,46.46
2023-03-06T10:43:45.885Z,46.91
2023-03-06T10:46:13.831Z,45.74
2023-03-06T10:48:42.254Z,45.90
2023-03-06T10:51:17.780Z,46.37
2023-03-06T10:53:55.091Z,46.58
2023-03-06T10:56:31.015Z,45.76
2023-03-06T10:59:19.837Z,46.32
2023-03-06T11:01:48.122Z,46.94
2023-03-06T11:04:31.608Z,45.48
2023-03-06T11:07:06.235Z,46.87
2023-03-06T11:09:33.149Z,46.42
2023-03-06T11:12:51.090Z,45.24
2023-03-06T11:15:20.160Z,44.60
2023-03-06T11:17:49.526Z,46.19
2023-03-06T11:20:24.178Z,45.70
2023-03-06T11:22:59.630Z,45.40
2023-03-06T11:25:46.031Z,43.96
2023-03-06T11:28:33.781Z,45.11
2023-03-06T11:31:06.359Z,44.77
2023-03-06T11:33:35.638Z,44.84
2023-03-06T11:36:39.723Z,45.17
2023-03-06T11:39:21.418Z,44.58
2023-03-06T11:41:56.906Z,44.53
2023-03-06T11:44:45.133Z,42.97
2023-03-06T11:47:57.139Z,42.65
2023-03-06T11:50:42.699Z,41.08
2023-03-06T11:53:33.195Z,40.74
2023-03-06T11:56:18.332Z,40.11
2023-03-06T11:59:00.649Z,42.43
2023-03-06T12:01:35.375Z,43.37
2023-03-06T12:04:20.213Z,42.64
2023-03-06T12:07:07.935Z,43.00
2023-03-06T12:09:34.510Z,43.02
2023-03-06T12:12:32.164Z,44.64
2023-03-06T12:15:04.713Z,44.34
2023-03-06T12:17:37.002Z,43.51
2023-03-06T12:20:14.150Z,44.43
2023-03-06T12:22:53.367Z,43.73
2023-03-06T12:25:31.569Z,44.43
2023-03-06T12:28:13.287Z,44.05
2023-03-06T12:31:05.629Z,44.62
2023-03-06T12:33:38.082Z,43.95
2023-03-06T12:36:29.097Z,43.57
2023-03-06T12:39:11.042Z,42.26
2023-03-06T12:41:50.289Z,43.44
2023-03-06T12:44:59.554Z,43.22
2023-03-06T12:47:27.485Z,41.49
2023-03-06T12:49:59.351Z,42.17
2023-03-06T12:52:30.509Z,42.91
2023-03-06T12:55:01.049Z,41.02
2023-03-06T12:57:27.671Z,40.03
2023-03-06T12:59:54.339Z,39.66
2023-03-06T13:02:36.092Z,38.50
2023-03-06T13:05:06.537Z,38.97
2023-03-06T13:07:35.746Z,39.28
2023-03-06T13:10:30.900Z,36.89
2023-03-06T13:13:04.127Z,39.24
2023-03-06T13:15:38.525Z,39.50
2023-03-06T13:18:37.248Z,37.89
2023-03-06T13:21:03.964Z,44.97
2023-03-06T13:23:30.472Z,40.50
2023-03-06T13:25:58.367Z,39.41
2023-03-06T13:28:25.985Z,38.82
2023-03-06T13:30:53.373Z,39.80
2023-03-06T13:33:40.151Z,39.56
2023-03-06T13:36:29.577Z,41.14
2023-03-06T13:39:23.189Z,40.29
2023-03-06T13:41:52.402Z,39.68
2023-03-06T13:44:24.821Z,39.85
2023-03-06T13:47:08.041Z,39.05
2023-03-06T13:49:34.730Z,39.41
2023-03-06T13:52:10.677Z,37.36
2023-03-06T13:54:52.700Z,37.12
2023-03-06T13:57:25.438Z,37.71
2023-03-06T14:00:13.232Z,38.86
2023-03-06T14:02:47.242Z,37.81
2023-03-06T14:05:14.583Z,36.77
2023-03-06T14:07:48.007Z,35.95
2023-03-06T14:10:14.566Z,37.29
2023-03-06T14:12:43.036Z,38.00
2023-03-06T14:15:16.538Z,38.28
2023-03-06T14:17:52.907Z,37.84
2023-03-06T14:20:19.888Z,38.49
2023-03-06T14:22:46.623Z,40.29
2023-03-06T14:25:20.671Z,38.53
2023-03-06T14:27:48.983Z,40.35
2023-03-06T14:30:19.984Z,41.47
2023-03-06T14:32:47.090Z,40.52
2023-03-06T14:35:28.383Z,42.59
2023-03-06T14:38:00.733Z,42.84
2023-03-06T14:40:40.889Z,41.97
2023-03-06T14:43:12.283Z,39.08
2023-03-06T14:45:51.325Z,37.90
2023-03-06T14:48:18.137Z,35.43
2023-03-06T14:50:51.921Z,38.10
2023-03-06T14:53:19.447Z,37.54
2023-03-06T14:55:53.957Z,32.58
2023-03-06T14:58:25.917Z,35.04
2023-03-06T15:00:52.859Z,34.85
2023-03-06T15:03:46.409Z,31.82
2023-03-06T15:06:20.785Z,27.49
2023-03-06T15:08:48.697Z,27.01
2023-03-06T15:11:15.352Z,28.42
2023-03-06T15:13:41.982Z,27.33
2023-03-06T15:16:23.650Z,27.58
2023-03-06T15:19:00.804Z,25.31
2023-03-06T15:21:35.301Z,26.79
2023-03-06T15:24:01.902Z,31.47
2023-03-06T15:26:38.366Z,29.25
2023-03-06T15:29:11.101Z,29.53
2023-03-06T15:31:39.071Z,30.20
2023-03-06T15:34:08.346Z,30.92
2023-03-06T15:36:56.044Z,28.35
2023-03-06T15:39:31.519Z,26.85
2023-03-06T15:42:20.080Z,25.40
2023-03-06T15:44:51.021Z,24.81
2023-03-06T15:47:17.626Z,23.89
2023-03-06T15:49:44.420Z,21.98
2023-03-06T15:52:11.240Z,31.44
2023-03-06T15:54:38.224Z,34.28
2023-03-06T15:57:05.807Z,29.74
2023-03-06T15:59:32.453Z,32.24
2023-03-06T16:02:02.958Z,32.48
2023-03-06T16:04:30.387Z,28.86
2023-03-06T16:06:57.036Z,24.75
2023-03-06T16:09:23.673Z,20.99
2023-03-06T16:11:50.282Z,20.31
2023-03-06T16:14:22.846Z,23.32
2023-03-06T16:16:50.704Z,26.77
2023-03-06T16:19:27.752Z,26.25
2023-03-06T16:21:55.580Z,25.71
2023-03-06T16:24:22.261Z,23.24
2023-03-06T16:26:49.981Z,20.77
2023-03-06T16:29:20.824Z,21.74
2023-03-06T16:31:47.581Z,20.62
2023-03-06T16:34:14.496Z,18.71
2023-03-06T16:36:41.212Z,18.42
2023-03-06T16:39:13.123Z,18.35
2023-03-06T16:41:39.775Z,17.90
2023-03-06T16:44:06.423Z,17.70
2023-03-06T16:46:33.136Z,16.96
2023-03-06T16:48:59.766Z,16.81
2023-03-06T16:51:26.466Z,16.77
2023-03-06T16:53:53.237Z,17.86
2023-03-06T16:56:20.102Z,18.50
2023-03-06T16:58:47.041Z,24.70
2023-03-06T17:01:17.621Z,27.88
2023-03-06T17:03:45.078Z,28.78
2023-03-06T17:06:21.324Z,26.24
2023-03-06T17:08:48.085Z,23.25
2023-03-06T17:11:14.799Z,22.55
2023-03-06T17:13:41.457Z,20.30
2023-03-06T17:16:08.911Z,18.58
2023-03-06T17:18:35.598Z,14.83
2023-03-06T17:21:02.292Z,12.77
2023-03-06T17:23:29.060Z,12.59
2023-03-06T17:26:09.718Z,13.23
2023-03-06T17:28:36.726Z,13.11
2023-03-06T17:31:10.881Z,12.76
2023-03-06T17:33:37.611Z,12.94
2023-03-06T17:36:04.470Z,13.19
2023-03-06T17:38:31.180Z,13.72
2023-03-06T17:41:02.380Z,13.65
2023-03-06T17:43:29.029Z,13.73
2023-03-06T17:45:55.665Z,12.84
2023-03-06T17:48:22.295Z,12.91
2023-03-06T17:50:57.978Z,13.02
2023-03-06T17:53:24.609Z,12.17
2023-03-06T17:55:51.256Z,13.14
2023-03-06T17:58:17.910Z,13.39
2023-03-06T18:00:44.554Z,13.84
2023-03-06T18:03:11.275Z,13.81
2023-03-06T18:05:37.991Z,13.00
2023-03-06T18:08:05.263Z,13.33
2023-03-06T18:10:31.900Z,13.64
2023-03-06T18:12:58.581Z,14.54
2023-03-06T18:15:25.299Z,14.41
2023-03-06T18:17:51.982Z,13.90
2023-03-06T18:20:20.953Z,13.75
2023-03-06T18:22:47.662Z,13.41
2023-03-06T18:25:14.261Z,13.45
2023-03-06T18:27:40.896Z,13.98
2023-03-06T18:30:08.112Z,12.94
2023-03-06T18:32:35.136Z,12.52
2023-03-06T18:35:01.851Z,12.07
2023-03-06T18:37:28.474Z,11.69
2023-03-06T18:39:55.061Z,11.08
2023-03-06T18:42:21.659Z,11.53
2023-03-06T18:44:48.280Z,11.52
2023-03-06T18:47:15.212Z,13.61
2023-03-06T18:49:44.119Z,13.76
2023-03-06T18:52:11.223Z,17.87
2023-03-06T18:54:37.960Z,12.37
2023-03-06T18:57:04.652Z,12.50
2023-03-06T18:59:31.290Z,13.14
2023-03-06T19:01:57.976Z,13.64
2023-03-06T19:04:25.510Z,13.45
2023-03-06T19:06:52.146Z,12.85
2023-03-06T19:09:18.835Z,12.95
2023-03-06T19:11:45.481Z,13.26
2023-03-06T19:14:12.582Z,13.32
2023-03-06T19:16:39.299Z,13.51
2023-03-06T19:19:06.002Z,13.53
2023-03-06T19:21:32.685Z,13.59
2023-03-06T19:23:59.416Z,13.41
2023-03-06T19:26:26.142Z,13.39
2023-03-06T19:28:53.989Z,13.22
2023-03-06T19:31:22.268Z,15.00
2023-03-06T19:33:49.234Z,13.27
2023-03-06T19:36:16.451Z,12.99
2023-03-06T19:38:43.215Z,13.76
2023-03-06T19:41:12.920Z,13.46
2023-03-06T19:43:42.703Z,14.27
2023-03-06T19:46:13.095Z,14.45
2023-03-06T19:48:40.856Z,14.92
2023-03-06T19:51:07.589Z,15.06
2023-03-06T19:53:34.503Z,15.34
2023-03-06T19:56:08.643Z,15.15
2023-03-06T19:58:35.246Z,14.48
2023-03-06T20:01:13.884Z,15.43
2023-03-06T20:03:40.636Z,14.82
2023-03-06T20:06:07.525Z,15.27
2023-03-06T20:08:34.778Z,16.86
2023-03-06T20:11:01.429Z,15.25
2023-03-06T20:13:28.056Z,15.29
2023-03-06T20:15:54.757Z,15.62
2023-03-06T20:18:21.458Z,16.43
2023-03-06T20:21:00.664Z,15.99
2023-03-06T20:23:27.488Z,15.52
2023-03-06T20:25:54.098Z,15.49
2023-03-06T20:28:21.181Z,15.88
2023-03-06T20:30:47.971Z,15.92
2023-03-06T20:33:14.589Z,16.37
2023-03-06T20:35:41.871Z,16.61
2023-03-06T20:38:09.059Z,16.57
2023-03-06T20:40:39.497Z,16.57
2023-03-06T20:43:06.282Z,16.72
2023-03-06T20:45:33.036Z,16.73
2023-03-06T20:47:59.677Z,16.95
2023-03-06T20:50:26.360Z,16.92
2023-03-06T20:52:54.449Z,16.33
2023-03-06T20:55:21.129Z,16.85
2023-03-06T20:57:51.360Z,17.16
2023-03-06T21:00:18.734Z,16.13
2023-03-06T21:02:45.489Z,15.74
2023-03-06T21:05:12.323Z,16.66
2023-03-06T21:07:39.931Z,17.13
2023-03-06T21:10:07.287Z,16.68
2023-03-06T21:12:33.928Z,17.18
2023-03-06T21:15:00.541Z,23.40
2023-03-06T21:17:27.466Z,35.01
2023-03-06T21:19:54.125Z,42.98
2023-03-06T21:22:20.741Z,19.12
2023-03-06T21:24:47.375Z,18.12
2023-03-06T21:27:14.110Z,23.20
2023-03-06T21:29:40.872Z,25.81
2023-03-06T21:32:07.778Z,36.76
2023-03-06T21:34:34.433Z,21.84
2023-03-06T21:37:01.111Z,17.76
2023-03-06T21:39:27.880Z,23.52
2023-03-06T21:41:54.572Z,22.44
2023-03-06T21:44:21.234Z,19.26
2023-03-06T21:46:47.883Z,17.18
2023-03-06T21:49:17.490Z,18.97
2023-03-06T21:51:44.243Z,17.48
2023-03-06T21:54:10.883Z,18.95
2023-03-06T21:56:37.561Z,17.44
2023-03-06T21:59:04.264Z,17.12
2023-03-06T22:01:30.938Z,16.04
2023-03-06T22:03:57.688Z,16.27
2023-03-06T22:06:25.532Z,16.65
2023-03-06T22:08:52.366Z,16.42
2023-03-06T22:11:20.193Z,16.06
2023-03-06T22:13:46.893Z,15.72
2023-03-06T22:16:13.822Z,16.45
2023-03-06T22:18:43.533Z,16.83
2023-03-06T22:21:10.860Z,16.56
2023-03-06T22:23:37.629Z,16.88
2023-03-06T22:26:05.078Z,17.16
2023-03-06T22:28:32.375Z,17.01
2023-03-06T22:31:09.822Z,16.27
2023-03-06T22:33:36.581Z,16.82
2023-03-06T22:36:04.624Z,16.59
2023-03-06T22:38:32.155Z,17.62
2023-03-06T22:40:58.882Z,16.60
2023-03-06T22:43:25.545Z,16.85
2023-03-06T22:45:52.272Z,17.67
2023-03-06T22:48:19.778Z,16.75
2023-03-06T22:50:46.568Z,16.81
2023-03-06T22:53:13.208Z,16.80
2023-03-06T22:55:39.841Z,17.10
2023-03-06T22:58:06.533Z,17.13
2023-03-06T23:00:33.242Z,17.22
2023-03-06T23:02:59.937Z,16.74
2023-03-06T23:05:29.164Z,17.51
2023-03-06T23:07:56.169Z,17.23
2023-03-06T23:10:22.830Z,17.33
2023-03-06T23:12:49.685Z,17.22
2023-03-06T23:15:16.443Z,17.79
2023-03-06T23:17:43.121Z,17.68
2023-03-06T23:20:10.561Z,17.13
2023-03-06T23:22:37.218Z,17.10
2023-03-06T23:25:04.008Z,17.42
2023-03-06T23:27:30.646Z,17.49
2023-03-06T23:29:57.317Z,20.87
2023-03-06T23:32:24.061Z,28.98
2023-03-06T23:34:50.973Z,28.12
2023-03-06T23:37:17.690Z,17.11
2023-03-06T23:39:44.369Z,15.78
2023-03-06T23:42:11.028Z,15.43
2023-03-06T23:44:37.656Z,15.55
2023-03-06T23:47:04.479Z,15.29
2023-03-06T23:49:31.165Z,15.56
2023-03-06T23:51:57.836Z,15.18
2023-03-06T23:54:24.474Z,15.08
2023-03-06T23:56:51.074Z,15.71
2023-03-06T23:59:17.726Z,15.52
